createdAt,value
2022-09-27T00:01:53.512Z,0.40
2022-09-27T00:04:25.729Z,0.60
2022-09-27T00:06:56.295Z,0.50
2022-09-27T00:09:26.939Z,0.30
2022-09-27T00:11:57.604Z,0.45
2022-09-27T00:14:38.891Z,0.43
2022-09-27T00:17:18.174Z,0.88
2022-09-27T00:19:48.478Z,0.40
2022-09-27T00:22:19.072Z,0.43
2022-09-27T00:24:49.707Z,0.40
2022-09-27T00:27:21.822Z,0.70
2022-09-27T00:29:52.884Z,0.50
2022-09-27T00:32:23.434Z,0.30
2022-09-27T00:34:53.638Z,0.50
2022-09-27T00:37:23.925Z,0.30
2022-09-27T00:39:54.688Z,0.30
2022-09-27T00:42:25.081Z,0.50
2022-09-27T00:45:01.468Z,0.60
2022-09-27T00:47:55.189Z,0.60
2022-09-27T00:50:32.993Z,0.30
2022-09-27T00:53:24.228Z,0.47
2022-09-27T00:56:01.465Z,0.47
2022-09-27T00:58:42.607Z,0.50
2022-09-27T01:01:19.209Z,0.50
2022-09-27T01:04:18.381Z,0.93
2022-09-27T01:06:48.580Z,0.57
2022-09-27T01:09:20.510Z,0.70
2022-09-27T01:12:07.021Z,1.10
2022-09-27T01:15:11.197Z,0.77
2022-09-27T01:18:08.659Z,1.20
2022-09-27T01:21:32.267Z,0.60
2022-09-27T01:24:19.527Z,1.00
2022-09-27T01:26:49.651Z,0.90
2022-09-27T01:29:56.360Z,0.93
2022-09-27T01:32:42.261Z,0.75
2022-09-27T01:35:53.874Z,0.90
2022-09-27T01:38:40.161Z,1.15
2022-09-27T01:41:37.908Z,0.90
2022-09-27T01:44:16.416Z,0.90
2022-09-27T01:47:00.870Z,1.23
2022-09-27T01:49:49.605Z,0.85
2022-09-27T01:52:24.597Z,1.30
2022-09-27T01:54:59.899Z,1.15
2022-09-27T01:57:36.559Z,0.85
2022-09-27T02:00:13.276Z,1.00
2022-09-27T02:03:12.605Z,0.98
2022-09-27T02:05:58.293Z,0.77
2022-09-27T02:08:53.415Z,0.93
2022-09-27T02:11:24.445Z,0.90
2022-09-27T02:14:14.441Z,1.45
2022-09-27T02:16:53.476Z,0.90
2022-09-27T02:19:51.221Z,0.80
2022-09-27T02:25:32.897Z,0.80
2022-09-27T02:28:09.422Z,0.80
2022-09-27T02:30:39.875Z,0.90
2022-09-27T02:33:10.386Z,0.90
2022-09-27T02:35:40.700Z,0.63
2022-09-27T02:38:11.354Z,0.90
2022-09-27T02:40:50.859Z,0.82
2022-09-27T02:43:23.706Z,0.70
2022-09-27T02:46:12.804Z,0.60
2022-09-27T02:49:00.357Z,1.30
2022-09-27T02:51:57.595Z,0.80
2022-09-27T02:55:12.798Z,0.60
2022-09-27T02:58:04.617Z,0.70
2022-09-27T03:01:00.232Z,0.50
2022-09-27T03:03:39.928Z,0.50
2022-09-27T03:06:16.715Z,0.52
2022-09-27T03:08:48.375Z,0.70
2022-09-27T03:11:19.229Z,0.60
2022-09-27T03:14:07.875Z,0.50
2022-09-27T03:16:59.353Z,0.57
2022-09-27T03:19:29.946Z,0.47
2022-09-27T03:22:00.291Z,0.50
2022-09-27T03:24:30.737Z,0.60
2022-09-27T03:27:00.870Z,0.50
2022-09-27T03:29:31.434Z,0.73
2022-09-27T03:32:02.035Z,0.90
2022-09-27T03:34:32.417Z,0.70
2022-09-27T03:37:02.923Z,0.50
2022-09-27T03:39:33.059Z,0.73
2022-09-27T03:42:03.199Z,0.50
2022-09-27T03:44:34.523Z,0.70
2022-09-27T03:47:04.695Z,0.80
2022-09-27T03:49:35.488Z,0.77
2022-09-27T03:52:13.224Z,0.90
2022-09-27T03:54:45.502Z,0.80
2022-09-27T03:57:18.701Z,1.08
2022-09-27T03:59:49.355Z,0.52
2022-09-27T04:02:19.936Z,0.60
2022-09-27T04:04:50.634Z,1.00
2022-09-27T04:07:24.454Z,1.00
2022-09-27T04:09:55.112Z,0.75
2022-09-27T04:12:26.317Z,0.77
2022-09-27T04:14:58.109Z,0.65
2022-09-27T04:17:29.210Z,0.50
2022-09-27T04:19:59.592Z,0.30
2022-09-27T04:22:34.418Z,0.60
2022-09-27T04:25:08.573Z,0.40
2022-09-27T04:27:39.100Z,0.40
2022-09-27T04:30:10.041Z,0.38
2022-09-27T04:32:52.377Z,0.40
2022-09-27T04:35:40.446Z,0.50
2022-09-27T04:38:11.015Z,0.25
2022-09-27T04:40:41.657Z,0.30
2022-09-27T04:43:13.174Z,0.63
2022-09-27T04:45:47.122Z,0.32
2022-09-27T04:48:17.722Z,0.30
2022-09-27T04:50:48.178Z,0.30
2022-09-27T04:53:18.893Z,0.20
2022-09-27T04:55:51.733Z,0.25
2022-09-27T04:58:22.238Z,0.25
2022-09-27T05:00:57.782Z,0.20
2022-09-27T05:03:28.432Z,0.20
2022-09-27T05:05:58.639Z,0.17
2022-09-27T05:08:30.144Z,0.20
2022-09-27T05:11:01.604Z,0.40
2022-09-27T05:13:32.354Z,0.28
2022-09-27T05:16:07.283Z,0.22
2022-09-27T05:18:37.426Z,0.20
2022-09-27T05:21:07.730Z,0.20
2022-09-27T05:23:37.965Z,0.25
2022-09-27T05:26:09.055Z,0.40
2022-09-27T05:28:39.363Z,0.45
2022-09-27T05:31:09.538Z,0.35
2022-09-27T05:33:40.154Z,0.40
2022-09-27T05:36:12.461Z,0.38
2022-09-27T05:38:45.598Z,0.30
2022-09-27T05:41:15.835Z,0.38
2022-09-27T05:43:47.069Z,0.40
2022-09-27T05:46:17.386Z,0.70
2022-09-27T05:48:48.096Z,0.30
2022-09-27T05:51:20.102Z,0.40
2022-09-27T05:53:51.006Z,0.40
2022-09-27T05:56:21.217Z,0.40
2022-09-27T05:58:51.584Z,0.40
2022-09-27T06:01:21.790Z,0.20
2022-09-27T06:03:53.085Z,0.55
2022-09-27T06:06:26.599Z,1.25
2022-09-27T06:08:56.816Z,0.30
2022-09-27T06:11:29.208Z,0.30
2022-09-27T06:14:00.194Z,0.45
2022-09-27T06:16:30.430Z,0.68
2022-09-27T06:19:02.150Z,0.40
2022-09-27T06:21:34.275Z,0.50
2022-09-27T06:24:04.676Z,0.45
2022-09-27T06:26:35.772Z,0.40
2022-09-27T06:29:06.383Z,0.60
2022-09-27T06:31:36.704Z,0.40
2022-09-27T06:34:06.946Z,0.40
2022-09-27T06:36:37.151Z,0.40
2022-09-27T06:39:08.150Z,0.47
2022-09-27T06:41:39.365Z,1.42
2022-09-27T06:44:10.213Z,0.40
2022-09-27T06:46:41.552Z,0.40
2022-09-27T06:49:12.158Z,0.60
2022-09-27T06:51:42.763Z,0.43
2022-09-27T06:54:13.329Z,0.65
2022-09-27T06:56:44.134Z,0.77
2022-09-27T06:59:33.541Z,0.40
2022-09-27T07:02:04.756Z,0.57
2022-09-27T07:04:35.935Z,0.20
2022-09-27T07:07:08.287Z,0.40
2022-09-27T07:09:41.434Z,0.30
2022-09-27T07:12:15.465Z,0.77
2022-09-27T07:14:46.769Z,0.20
2022-09-27T07:17:16.946Z,0.30
2022-09-27T07:19:47.231Z,1.27
2022-09-27T07:22:17.532Z,0.85
2022-09-27T07:24:47.966Z,0.60
2022-09-27T07:27:19.872Z,0.57
2022-09-27T07:29:50.471Z,0.70
2022-09-27T07:32:20.650Z,0.30
2022-09-27T07:34:51.265Z,0.40
2022-09-27T07:37:21.466Z,0.38
2022-09-27T07:39:51.682Z,0.28
2022-09-27T07:42:22.694Z,0.35
2022-09-27T07:44:52.979Z,1.48
2022-09-27T07:47:25.699Z,0.32
2022-09-27T07:49:56.336Z,0.45
2022-09-27T07:52:26.469Z,0.43
2022-09-27T07:54:56.691Z,0.50
2022-09-27T07:57:27.063Z,0.50
2022-09-27T07:59:57.257Z,0.50
2022-09-27T08:02:27.616Z,0.30
2022-09-27T08:04:57.925Z,0.85
2022-09-27T08:07:30.518Z,0.40
2022-09-27T08:10:02.113Z,0.70
2022-09-27T08:12:32.418Z,0.90
2022-09-27T08:15:04.503Z,0.70
2022-09-27T08:17:35.380Z,0.98
2022-09-27T08:20:08.405Z,0.80
2022-09-27T08:22:46.648Z,0.80
2022-09-27T08:25:17.072Z,0.55
2022-09-27T08:27:57.003Z,0.85
2022-09-27T08:30:28.365Z,1.50
2022-09-27T08:33:04.568Z,0.98
2022-09-27T08:35:37.122Z,1.33
2022-09-27T08:38:07.625Z,1.00
2022-09-27T08:41:03.783Z,1.13
2022-09-27T08:43:42.180Z,0.95
2022-09-27T08:46:24.435Z,0.77
2022-09-27T08:49:03.873Z,1.70
2022-09-27T08:51:35.982Z,2.00
2022-09-27T08:54:33.054Z,2.65
2022-09-27T08:57:14.504Z,1.92
2022-09-27T08:59:52.495Z,2.20
2022-09-27T09:02:28.297Z,1.90
2022-09-27T09:05:17.083Z,2.05
2022-09-27T09:08:19.080Z,1.70
2022-09-27T09:11:19.888Z,2.00
2022-09-27T09:14:36.122Z,2.22
2022-09-27T09:17:27.999Z,1.70
2022-09-27T09:20:04.172Z,2.28
2022-09-27T09:22:40.465Z,2.58
2022-09-27T09:25:19.451Z,2.37
2022-09-27T09:28:07.049Z,2.28
2022-09-27T09:33:40.769Z,2.75
2022-09-27T09:36:20.258Z,2.80
2022-09-27T09:39:01.586Z,2.83
2022-09-27T09:41:43.977Z,3.22
2022-09-27T09:44:37.425Z,3.20
2022-09-27T09:47:31.624Z,2.60
2022-09-27T09:50:08.832Z,2.90
2022-09-27T09:52:44.641Z,3.47
2022-09-27T09:55:20.810Z,3.10
2022-09-27T09:58:29.374Z,2.70
2022-09-27T10:03:33.933Z,2.60
2022-09-27T10:06:05.028Z,2.20
2022-09-27T10:08:35.809Z,2.45
2022-09-27T10:11:06.452Z,2.47
2022-09-27T10:13:40.092Z,2.70
2022-09-27T10:16:16.948Z,2.45
2022-09-27T10:18:50.094Z,2.80
2022-09-27T10:21:32.574Z,4.07
2022-09-27T10:24:18.622Z,3.80
2022-09-27T10:26:54.749Z,3.00
2022-09-27T10:29:38.168Z,3.38
2022-09-27T10:32:24.738Z,4.20
2022-09-27T10:34:55.394Z,3.63
2022-09-27T10:37:26.783Z,3.45
2022-09-27T10:39:58.444Z,3.05
2022-09-27T10:42:36.429Z,3.30
2022-09-27T10:45:32.686Z,3.28
2022-09-27T10:48:05.133Z,3.38
2022-09-27T10:50:50.121Z,3.13
2022-09-27T10:53:24.496Z,2.40
2022-09-27T10:55:56.518Z,3.78
2022-09-27T10:58:37.117Z,3.00
2022-09-27T11:01:14.429Z,2.45
2022-09-27T11:04:02.455Z,3.00
2022-09-27T11:06:39.623Z,2.58
2022-09-27T11:09:23.125Z,2.38
2022-09-27T11:11:59.418Z,2.50
2022-09-27T11:14:36.907Z,3.30
2022-09-27T11:17:29.682Z,3.15
2022-09-27T11:20:21.861Z,3.17
2022-09-27T11:23:23.066Z,4.20
2022-09-27T11:26:28.912Z,4.55
2022-09-27T11:28:59.600Z,3.50
2022-09-27T11:31:38.483Z,4.22
2022-09-27T11:34:35.975Z,3.63
2022-09-27T11:37:24.697Z,3.65
2022-09-27T11:40:13.116Z,3.63
2022-09-27T11:43:01.888Z,3.97
2022-09-27T11:46:14.363Z,4.05
2022-09-27T11:48:44.511Z,4.53
2022-09-27T11:51:25.646Z,3.28
2022-09-27T11:54:30.736Z,2.47
2022-09-27T11:57:20.761Z,2.25
2022-09-27T11:59:59.862Z,2.38
2022-09-27T12:02:35.867Z,2.30
2022-09-27T12:05:22.235Z,2.80
2022-09-27T12:07:55.412Z,2.50
2022-09-27T12:10:26.012Z,2.28
2022-09-27T12:13:00.747Z,3.17
2022-09-27T12:15:43.622Z,2.95
2022-09-27T12:18:44.280Z,3.05
2022-09-27T12:21:19.920Z,2.75
2022-09-27T12:24:01.967Z,2.58
2022-09-27T12:26:37.954Z,2.15
2022-09-27T12:29:17.571Z,2.30
2022-09-27T12:32:11.757Z,2.10
2022-09-27T12:34:54.666Z,3.05
2022-09-27T12:37:46.456Z,3.30
2022-09-27T12:41:06.870Z,3.63
2022-09-27T12:43:37.580Z,3.25
2022-09-27T12:46:36.950Z,3.30
2022-09-27T12:49:13.782Z,3.17
2022-09-27T12:51:54.151Z,2.95
2022-09-27T12:54:51.765Z,2.95
2022-09-27T12:57:43.368Z,2.33
2022-09-27T13:00:18.094Z,2.53
2022-09-27T13:03:26.636Z,2.80
2022-09-27T13:08:45.742Z,3.78
2022-09-27T13:11:43.708Z,2.83
2022-09-27T13:14:29.005Z,2.60
2022-09-27T13:17:07.526Z,1.90
2022-09-27T13:19:44.947Z,1.65
2022-09-27T13:22:30.802Z,2.10
2022-09-27T13:25:01.761Z,2.05
2022-09-27T13:27:32.588Z,1.90
2022-09-27T13:30:15.074Z,1.55
2022-09-27T13:33:07.967Z,1.70
2022-09-27T13:35:39.495Z,1.70
2022-09-27T13:38:25.868Z,1.83
2022-09-27T13:40:57.308Z,1.40
2022-09-27T13:43:46.056Z,1.65
2022-09-27T13:46:23.931Z,1.30
2022-09-27T13:49:07.208Z,1.55
2022-09-27T13:51:47.629Z,1.13
2022-09-27T13:54:52.451Z,1.20
2022-09-27T13:57:44.608Z,1.17
2022-09-27T14:00:25.403Z,1.48
2022-09-27T14:03:04.904Z,1.52
2022-09-27T14:05:58.805Z,1.35
2022-09-27T14:08:37.238Z,1.20
2022-09-27T14:11:18.162Z,0.93
2022-09-27T14:13:51.428Z,1.05
2022-09-27T14:23:08.448Z,1.45
2022-09-27T14:25:47.106Z,1.50
2022-09-27T14:28:43.210Z,1.67
2022-09-27T15:43:04.387Z,2.47
2022-09-27T15:45:42.210Z,2.40
2022-09-27T15:48:43.238Z,2.60
2022-09-27T15:52:08.910Z,2.40
2022-09-27T15:55:03.150Z,2.53
2022-09-27T15:57:38.214Z,2.90
2022-09-27T16:00:09.564Z,2.97
2022-09-27T16:02:39.939Z,2.75
2022-09-27T16:05:11.405Z,2.13
2022-09-27T16:07:41.644Z,2.10
2022-09-27T16:10:20.355Z,2.15
2022-09-27T16:12:50.813Z,2.63
2022-09-27T16:15:21.547Z,2.50
2022-09-27T16:18:04.510Z,2.28
2022-09-27T16:23:48.180Z,2.50
2022-09-27T16:26:18.882Z,3.00
2022-09-27T16:28:51.045Z,3.83
2022-09-27T16:31:32.557Z,2.70
2022-09-27T16:34:15.411Z,2.50
2022-09-27T16:37:02.816Z,3.08
2022-09-27T16:39:43.406Z,2.95
2022-09-27T16:42:20.303Z,3.10
2022-09-27T16:48:07.310Z,2.47
2022-09-27T16:54:03.150Z,2.08
2022-09-27T16:56:48.463Z,2.83
2022-09-27T16:59:27.545Z,2.15
2022-09-27T17:02:05.851Z,2.08
2022-09-27T17:04:47.997Z,1.75
2022-09-27T17:07:27.088Z,2.67
2022-09-27T17:10:03.227Z,2.38
2022-09-27T17:12:35.157Z,2.58
2022-09-27T17:15:06.362Z,2.08
2022-09-27T17:17:38.029Z,1.67
2022-09-27T17:20:09.010Z,3.00
2022-09-27T17:22:39.136Z,1.52
2022-09-27T17:25:09.959Z,1.25
2022-09-27T17:27:40.262Z,1.30
2022-09-27T17:30:11.152Z,1.55
2022-09-27T17:32:41.885Z,1.90
2022-09-27T17:35:12.975Z,1.40
2022-09-27T17:37:43.117Z,1.35
2022-09-27T17:40:14.277Z,1.67
2022-09-27T17:42:44.569Z,1.67
2022-09-27T17:45:14.953Z,1.10
2022-09-27T17:48:03.567Z,1.42
2022-09-27T17:50:34.287Z,1.17
2022-09-27T17:53:07.134Z,1.38
2022-09-27T17:55:38.115Z,1.40
2022-09-27T17:58:11.250Z,1.35
2022-09-27T18:00:41.701Z,1.48
2022-09-27T18:03:11.926Z,1.40
2022-09-27T18:05:43.555Z,1.25
2022-09-27T18:08:13.808Z,1.33
2022-09-27T18:10:44.842Z,1.50
2022-09-27T18:13:18.036Z,1.35
2022-09-27T18:16:01.273Z,1.38
2022-09-27T18:18:31.461Z,1.27
2022-09-27T18:21:06.521Z,1.25
2022-09-27T18:23:37.181Z,1.63
2022-09-27T18:26:54.137Z,1.58
2022-09-27T18:29:37.037Z,1.40
2022-09-27T18:35:00.699Z,1.00
2022-09-27T18:37:37.133Z,1.20
2022-09-27T18:40:07.642Z,1.27
2022-09-27T18:42:37.805Z,1.80
2022-09-27T18:45:08.711Z,1.17
2022-09-27T18:47:38.895Z,1.50
2022-09-27T18:50:09.960Z,1.30
2022-09-27T18:52:40.943Z,2.00
2022-09-27T18:55:11.874Z,1.77
2022-09-27T18:57:43.704Z,1.33
2022-09-27T19:00:15.193Z,1.40
2022-09-27T19:02:45.767Z,1.50
2022-09-27T19:05:26.740Z,1.73
2022-09-27T19:08:02.033Z,1.65
2022-09-27T19:10:32.624Z,2.08
2022-09-27T19:13:04.144Z,1.23
2022-09-27T19:15:36.710Z,1.10
2022-09-27T19:18:12.061Z,1.35
2022-09-27T19:23:29.825Z,1.70
2022-09-27T19:26:07.827Z,1.98
2022-09-27T19:28:56.493Z,1.73
2022-09-27T19:31:35.337Z,1.00
2022-09-27T19:34:08.843Z,0.88
2022-09-27T19:36:41.591Z,0.95
2022-09-27T19:39:22.640Z,0.80
2022-09-27T19:42:08.341Z,0.77
2022-09-27T19:44:57.993Z,0.95
2022-09-27T19:47:35.329Z,0.70
2022-09-27T19:50:14.623Z,1.08
2022-09-27T19:52:53.372Z,1.08
2022-09-27T19:55:23.573Z,1.13
2022-09-27T19:57:57.176Z,2.63
2022-09-27T20:00:28.324Z,1.30
2022-09-27T20:03:15.010Z,1.48
2022-09-27T20:06:16.255Z,1.30
2022-09-27T20:09:04.245Z,1.73
2022-09-27T20:11:41.098Z,1.50
2022-09-27T20:14:23.977Z,1.38
2022-09-27T20:17:01.065Z,1.60
2022-09-27T20:22:26.399Z,1.13
2022-09-27T20:25:26.089Z,0.90
2022-09-27T20:28:08.443Z,0.82
2022-09-27T20:30:44.308Z,0.93
2022-09-27T20:33:33.964Z,1.27
2022-09-27T20:36:09.993Z,0.90
2022-09-27T20:41:55.300Z,0.68
2022-09-27T20:44:35.374Z,1.05
2022-09-27T20:47:46.760Z,0.90
2022-09-27T20:50:26.796Z,0.90
2022-09-27T20:56:10.049Z,0.80
2022-09-27T20:59:04.557Z,1.40
2022-09-27T21:01:39.791Z,0.90
2022-09-27T21:04:28.547Z,1.20
2022-09-27T21:07:07.505Z,0.68
2022-09-27T21:10:01.552Z,0.80
2022-09-27T21:12:42.845Z,0.80
2022-09-27T21:15:27.147Z,0.80
2022-09-27T21:20:52.526Z,0.95
2022-09-27T21:23:40.829Z,0.70
2022-09-27T21:26:25.606Z,0.68
2022-09-27T21:29:00.852Z,0.75
2022-09-27T21:31:38.495Z,0.90
2022-09-27T21:34:09.857Z,0.90
2022-09-27T21:36:41.753Z,0.98
2022-09-27T21:39:12.698Z,1.52
2022-09-27T21:41:43.633Z,1.00
2022-09-27T21:44:14.509Z,0.50
2022-09-27T21:46:45.841Z,0.30
2022-09-27T21:49:17.853Z,0.40
2022-09-27T21:51:48.152Z,0.32
2022-09-27T21:54:22.679Z,0.20
2022-09-27T21:56:54.888Z,0.55
2022-09-27T21:59:36.672Z,0.30
2022-09-27T22:02:11.367Z,0.20
2022-09-27T22:04:44.680Z,0.20
2022-09-27T22:07:16.459Z,0.22
2022-09-27T22:09:52.711Z,0.20
2022-09-27T22:12:27.097Z,0.20
2022-09-27T22:15:01.555Z,0.25
2022-09-27T22:17:42.605Z,0.25
2022-09-27T22:20:18.521Z,0.10
2022-09-27T22:22:50.359Z,0.20
2022-09-27T22:25:37.145Z,0.22
2022-09-27T22:28:12.843Z,0.30
2022-09-27T22:30:53.676Z,0.30
2022-09-27T22:33:24.322Z,0.30
2022-09-27T22:35:55.790Z,0.22
2022-09-27T22:38:37.529Z,0.40
2022-09-27T22:41:09.458Z,0.40
2022-09-27T22:43:40.560Z,0.47
2022-09-27T22:46:13.366Z,0.30
2022-09-27T22:48:44.786Z,0.50
2022-09-27T22:51:16.360Z,0.85
2022-09-27T22:53:48.084Z,0.40
2022-09-27T22:56:21.194Z,0.50
2022-09-27T22:58:54.613Z,0.60
2022-09-27T23:01:28.563Z,0.63
2022-09-27T23:03:59.032Z,0.80
2022-09-27T23:06:30.178Z,0.80
2022-09-27T23:09:03.696Z,0.47
2022-09-27T23:11:35.225Z,0.82
2022-09-27T23:14:09.009Z,0.70
2022-09-27T23:16:40.150Z,0.85
2022-09-27T23:19:11.883Z,1.05
2022-09-27T23:21:42.514Z,0.68
2022-09-27T23:24:16.383Z,0.70
2022-09-27T23:26:46.653Z,1.00
2022-09-27T23:29:17.043Z,0.50
2022-09-27T23:31:47.848Z,0.60
2022-09-27T23:34:21.283Z,0.55
2022-09-27T23:36:52.320Z,0.47
2022-09-27T23:39:23.269Z,0.77
2022-09-27T23:41:53.824Z,0.88
2022-09-27T23:44:24.974Z,0.50
2022-09-27T23:47:01.933Z,0.68
2022-09-27T23:52:06.039Z,0.40
2022-09-27T23:54:36.714Z,0.60
2022-09-27T23:57:07.870Z,0.70
2022-09-27T23:59:40.781Z,0.90
